Time;durP1;ratioP1;P1;durP2;ratioP2;P2;SDS_P1;SDS_P2;PMS_P1;PMS_P2;Temp;Humidity;BMP_temperature;BMP_pressure;BME280_temperature;BME280_humidity;BME280_pressure;Samples;Min_cycle;Max_cycle;Signal;HPM_P1;HPM_P2
2023/10/09 00:01:20;;;;;;;17.80;5.97;;;;;;;13.06;100.00;101234.94;4898733;29;20512;-71
2023/10/09 00:04:23;;;;;;;9.30;5.35;;;;;;;13.01;100.00;101242.19;4898707;29;20096;-71
2023/10/09 00:07:30;;;;;;;9.95;4.55;;;;;;;13.02;100.00;101236.03;4898279;29;20052;-71
2023/10/09 00:10:45;;;;;;;12.27;5.05;;;;;;;13.01;100.00;101236.94;4898189;29;20096;-71
2023/10/09 00:13:48;;;;;;;8.68;4.80;;;;;;;13.05;100.00;101230.63;4898296;29;20564;-71
2023/10/09 00:20:24;;;;;;;7.03;4.30;;;;;;;12.96;100.00;101225.84;4898227;29;20059;-71
2023/10/09 00:23:28;;;;;;;10.00;3.90;;;;;;;12.93;100.00;101218.13;4898153;29;20468;-71
2023/10/09 00:26:42;;;;;;;6.75;4.22;;;;;;;12.77;100.00;101211.03;4897824;29;20052;-71
2023/10/09 00:29:46;;;;;;;7.43;3.45;;;;;;;12.85;99.82;101207.16;4897931;29;20432;-71
2023/10/09 00:36:11;;;;;;;4.63;2.42;;;;;;;12.90;98.44;101197.28;4897955;29;20044;-71
2023/10/09 00:39:33;;;;;;;5.35;2.63;;;;;;;12.88;98.16;101181.59;4886123;29;20055;-71
2023/10/09 00:42:38;;;;;;;7.40;2.78;;;;;;;12.75;98.80;101188.41;4886272;29;20055;-71
2023/10/09 00:45:44;;;;;;;4.15;2.30;;;;;;;12.69;99.59;101184.31;4886258;29;20540;-71
2023/10/09 00:48:55;;;;;;;6.70;2.47;;;;;;;12.71;99.10;101174.59;4886320;29;20087;-71
2023/10/09 00:51:59;;;;;;;6.85;2.50;;;;;;;12.76;98.88;101167.38;4885962;29;20123;-71
2023/10/09 00:55:20;;;;;;;11.60;3.72;;;;;;;12.70;99.62;101166.78;4897448;29;20520;-71
2023/10/09 00:58:30;;;;;;;10.75;3.90;;;;;;;12.77;99.44;101158.56;4885958;29;20175;-71
2023/10/09 01:01:44;;;;;;;9.68;4.00;;;;;;;12.74;99.27;101153.47;4897696;29;20483;-71
2023/10/09 01:04:48;;;;;;;8.13;3.80;;;;;;;12.68;99.14;101158.19;4885517;29;20107;-71
2023/10/09 01:07:58;;;;;;;10.73;3.25;;;;;;;12.68;99.13;101155.56;4897547;29;20051;-71
2023/10/09 01:11:14;;;;;;;10.38;3.58;;;;;;;12.58;99.58;101147.31;4885779;29;20063;-71
2023/10/09 01:14:21;;;;;;;9.18;3.55;;;;;;;12.61;99.34;101151.56;4885849;29;20051;-71
2023/10/09 01:17:35;;;;;;;12.65;4.13;;;;;;;12.59;100.00;101151.63;4897371;29;20091;-71
2023/10/09 01:20:41;;;;;;;7.57;4.45;;;;;;;12.62;100.00;101148.84;4897346;29;20112;-71
2023/10/09 01:27:15;;;;;;;11.98;2.70;;;;;;;12.49;98.97;101150.38;4897316;29;20051;-71
2023/10/09 01:30:20;;;;;;;8.50;3.67;;;;;;;12.48;98.99;101152.16;4897161;29;20524;-71
2023/10/09 01:33:24;;;;;;;10.60;4.07;;;;;;;12.44;99.63;101149.75;4897532;29;20111;-71
2023/10/09 01:36:33;;;;;;;20.63;5.03;;;;;;;12.38;99.82;101140.44;4885622;29;20056;-71
2023/10/09 01:39:40;;;;;;;10.30;4.10;;;;;;;12.42;100.00;101154.25;4897017;29;20055;-71
2023/10/09 01:42:46;;;;;;;9.55;4.22;;;;;;;12.45;100.00;101151.47;4897161;29;20071;-71
2023/10/09 01:45:51;;;;;;;6.03;3.35;;;;;;;12.44;100.00;101145.34;4897228;29;20111;-71
2023/10/09 01:48:55;;;;;;;6.72;3.40;;;;;;;12.47;99.98;101149.59;4897257;29;20078;-71
2023/10/09 01:52:01;;;;;;;5.35;3.33;;;;;;;12.44;99.36;101145.34;4897070;29;20064;-71
2023/10/09 01:55:07;;;;;;;11.27;3.20;;;;;;;12.45;99.63;101144.44;4896875;29;20072;-71
2023/10/09 01:58:24;;;;;;;7.72;3.20;;;;;;;12.42;99.70;101151.63;4885404;29;20056;-71
2023/10/09 02:01:27;;;;;;;9.63;3.17;;;;;;;12.47;99.39;101139.09;4885478;29;20527;-71
2023/10/09 02:04:30;;;;;;;;;;;;;;;12.45;99.11;101147.06;4897461;29;20152;-71
2023/10/09 02:07:51;;;;;;;7.40;2.90;;;;;;;12.46;98.88;101140.03;4885418;29;19963;-71
2023/10/09 02:10:57;;;;;;;6.15;2.75;;;;;;;12.51;98.46;101135.44;4885131;29;20056;-76
2023/10/09 02:14:05;;;;;;;9.50;3.13;;;;;;;12.46;98.64;101137.41;4885402;29;20163;-71
2023/10/09 02:17:09;;;;;;;7.20;2.75;;;;;;;12.36;98.65;101130.94;4888784;29;20520;-71
2023/10/09 02:20:17;;;;;;;8.82;2.97;;;;;;;12.35;98.63;101130.09;4900370;29;20124;-71
2023/10/09 02:23:25;;;;;;;6.00;2.60;;;;;;;12.30;99.05;101130.31;4900250;29;20052;-71
2023/10/09 02:26:46;;;;;;;10.18;2.72;;;;;;;12.26;98.42;101126.16;4888618;29;20083;-71
2023/10/09 02:29:53;;;;;;;6.55;2.47;;;;;;;12.26;98.26;101117.44;4888799;29;20103;-71
2023/10/09 02:33:06;;;;;;;7.75;2.53;;;;;;;12.28;98.02;101113.84;4900005;29;20049;-71
2023/10/09 02:36:12;;;;;;;8.10;2.00;;;;;;;12.20;97.62;101110.72;4899982;29;20466;-71
2023/10/09 02:39:30;;;;;;;6.93;2.28;;;;;;;12.17;97.81;101116.13;4888415;29;20434;-71
2023/10/09 02:42:33;;;;;;;6.57;2.60;;;;;;;12.16;98.15;101111.81;4888359;29;20204;-70
2023/10/09 02:45:46;;;;;;;;;;;;;;;12.12;97.87;101110.25;4900332;29;20406;-71
2023/10/09 02:48:53;;;;;;;9.02;2.40;;;;;;;12.08;98.04;101111.31;4888299;29;19971;-70
2023/10/09 02:51:57;;;;;;;10.18;2.78;;;;;;;12.08;98.06;101101.69;4899776;29;20099;-71
2023/10/09 02:55:12;;;;;;;7.78;2.53;;;;;;;12.17;97.74;101096.94;4888262;29;20104;-71
2023/10/09 02:58:23;;;;;;;8.43;3.10;;;;;;;12.21;97.92;101090.59;4888358;29;20059;-71
2023/10/09 03:01:26;;;;;;;6.53;3.53;;;;;;;12.17;97.71;101089.91;4899463;29;20071;-71
2023/10/09 03:04:30;;;;;;;8.25;3.30;;;;;;;12.20;98.01;101097.63;4899603;29;20048;-71
2023/10/09 03:07:34;;;;;;;5.45;3.35;;;;;;;12.13;98.83;101083.13;4887859;29;20047;-71
2023/10/09 03:10:38;;;;;;;7.05;3.13;;;;;;;12.19;98.62;101088.06;4887516;29;20112;-71
2023/10/09 03:13:44;;;;;;;10.23;2.97;;;;;;;12.18;99.76;101080.25;4887633;29;20079;-72
2023/10/09 03:16:48;;;;;;;7.85;3.28;;;;;;;12.11;100.00;101090.22;4899182;29;20098;-71
2023/10/09 03:19:52;;;;;;;10.52;4.60;;;;;;;11.99;100.00;101089.03;4899138;29;20416;-71
2023/10/09 03:22:55;;;;;;;9.00;3.33;;;;;;;12.01;100.00;101087.19;4899144;29;20185;-71
2023/10/09 03:25:59;;;;;;;9.15;3.35;;;;;;;12.07;100.00;101089.50;4887172;29;20416;-72
2023/10/09 03:29:06;;;;;;;8.02;3.83;;;;;;;11.93;100.00;101078.00;4887449;29;20113;-72
2023/10/09 03:32:11;;;;;;;7.82;3.88;;;;;;;12.03;100.00;101084.50;4898940;29;20048;-70
2023/10/09 03:35:17;;;;;;;6.32;3.60;;;;;;;12.04;100.00;101083.56;4898918;29;20092;-72
2023/10/09 03:38:20;;;;;;;5.90;3.28;;;;;;;11.92;100.00;101074.53;4898933;29;20096;-71
2023/10/09 03:41:28;;;;;;;7.10;3.15;;;;;;;11.91;100.00;101077.25;4898856;29;20539;-71
2023/10/09 03:44:34;;;;;;;12.93;4.10;;;;;;;12.01;100.00;101076.72;4899013;29;20433;-71
2023/10/09 03:47:37;;;;;;;9.23;3.53;;;;;;;12.17;100.00;101074.19;4898751;29;20512;-71
2023/10/09 03:50:43;;;;;;;;;;;;;;;12.19;100.00;101081.94;4899081;29;20051;-71
2023/10/09 03:53:47;;;;;;;5.63;3.45;;;;;;;12.33;100.00;101080.34;4887057;29;20062;-71
2023/10/09 03:56:50;;;;;;;7.60;3.00;;;;;;;12.42;100.00;101083.44;4898596;29;20056;-71
2023/10/09 03:59:55;;;;;;;6.38;3.15;;;;;;;12.46;100.00;101079.72;4898464;29;20167;-72
2023/10/09 04:02:59;;;;;;;5.07;2.92;;;;;;;12.44;100.00;101084.19;4898585;29;20051;-70
2023/10/09 04:06:03;;;;;;;6.75;2.75;;;;;;;12.46;100.00;101071.84;4898603;29;20569;-71
2023/10/09 04:12:25;;;;;;;7.15;2.72;;;;;;;12.44;100.00;101076.31;4898111;29;20572;-70
2023/10/09 04:15:30;;;;;;;7.30;3.10;;;;;;;12.47;100.00;101082.25;4898265;29;20044;-69
2023/10/09 04:18:34;;;;;;;6.25;2.70;;;;;;;12.46;100.00;101074.47;4896135;29;20063;-70
2023/10/09 04:21:37;;;;;;;6.88;3.10;;;;;;;12.47;100.00;101082.25;4895948;29;20054;-70
2023/10/09 04:24:44;;;;;;;7.65;2.95;;;;;;;12.48;99.98;101081.34;4897841;29;20389;-69
2023/10/09 04:27:47;;;;;;;5.28;2.72;;;;;;;12.47;100.00;101076.16;4897892;29;20047;-69
2023/10/09 04:30:55;;;;;;;6.50;2.72;;;;;;;12.45;100.00;101072.78;4897854;29;20046;-69
2023/10/09 04:37:36;;;;;;;12.82;2.95;;;;;;;12.39;100.00;101073.09;4897950;29;20655;-70
2023/10/09 04:43:50;;;;;;;4.57;2.40;;;;;;;12.45;100.00;101078.03;4896613;29;20069;-69
2023/10/09 04:50:14;;;;;;;8.77;3.05;;;;;;;12.43;100.00;101070.22;4894878;29;20055;-69
2023/10/09 04:56:24;;;;;;;12.02;3.17;;;;;;;12.46;100.00;101069.22;4895278;29;20134;-70
2023/10/09 04:59:28;;;;;;;6.65;2.63;;;;;;;12.43;100.00;101069.38;4896249;29;20051;-69
2023/10/09 05:02:36;;;;;;;9.60;4.18;;;;;;;12.46;100.00;101058.75;4897741;29;20055;-70
2023/10/09 05:05:48;;;;;;;10.23;3.28;;;;;;;12.46;100.00;101063.97;4897754;29;20557;-68
2023/10/09 05:08:54;;;;;;;8.82;2.95;;;;;;;12.43;100.00;101062.34;4897391;29;20055;-69
2023/10/09 05:12:09;;;;;;;6.40;3.38;;;;;;;12.42;100.00;101062.44;4897328;29;20522;-70
2023/10/09 05:15:14;;;;;;;9.95;4.25;;;;;;;12.31;100.00;101058.59;4897629;29;20115;-70
2023/10/09 05:18:20;;;;;;;10.45;4.28;;;;;;;12.18;100.00;101054.88;4898070;29;20468;-70
2023/10/09 05:21:35;;;;;;;14.05;4.57;;;;;;;12.07;100.00;101055.44;4886395;29;20083;-72
2023/10/09 05:24:47;;;;;;;10.77;5.90;;;;;;;12.15;100.00;101057.66;4897391;29;20059;-73
2023/10/09 05:27:50;;;;;;;13.98;5.13;;;;;;;12.24;100.00;101067.69;4897859;29;20044;-68
2023/10/09 05:31:08;;;;;;;14.70;5.57;;;;;;;12.37;100.00;101075.78;4896780;29;20489;-68
2023/10/09 05:34:12;;;;;;;6.97;4.03;;;;;;;12.42;100.00;101076.41;4895907;29;20127;-68
2023/10/09 05:37:22;;;;;;;8.57;4.35;;;;;;;12.44;100.00;101073.69;4896130;29;20051;-68
2023/10/09 05:40:30;;;;;;;12.40;4.50;;;;;;;12.43;100.00;101074.63;4896353;29;20143;-69
2023/10/09 06:03:48;;;;;;;10.82;4.30;;;;;;;12.53;100.00;101081.09;4898927;29;20367;-69
2023/10/09 06:06:56;;;;;;;10.60;4.53;;;;;;;12.53;100.00;101084.56;4899306;29;20063;-68
2023/10/09 06:10:10;;;;;;;11.13;4.75;;;;;;;12.45;100.00;101078.03;4898753;29;20504;-68
2023/10/09 06:16:59;;;;;;;9.05;4.65;;;;;;;12.45;100.00;101072.78;4898937;29;20055;-68
2023/10/09 06:20:39;;;;;;;11.90;5.15;;;;;;;12.47;100.00;101077.00;4899191;29;20426;-69
2023/10/09 06:23:57;;;;;;;12.02;4.88;;;;;;;12.48;100.00;101083.13;4899194;29;20055;-68
2023/10/09 06:30:23;;;;;;;7.72;4.20;;;;;;;12.46;100.00;101063.97;4899117;29;20103;-68
2023/10/09 06:33:57;;;;;;;11.27;4.72;;;;;;;12.45;100.00;101067.53;4898961;29;20171;-66
2023/10/09 06:36:53;;;;;;;10.57;7.78;;;;;;;12.54;100.00;101072.31;4898473;29;20048;-66
2023/10/09 06:43:07;;;;;;;16.15;13.20;;;;;;;12.63;100.00;101076.22;4898409;29;20059;-66
2023/10/09 06:49:33;;;;;;;9.73;4.97;;;;;;;12.72;100.00;101081.81;4898248;29;20064;-66
2023/10/09 06:56:07;;;;;;;9.55;5.00;;;;;;;12.77;100.00;101090.31;4898178;29;20092;-66
2023/10/09 06:59:21;;;;;;;12.00;4.90;;;;;;;12.77;100.00;101089.47;4898179;29;20075;-66
2023/10/09 07:02:27;;;;;;;12.00;4.93;;;;;;;12.78;100.00;101078.88;4897155;29;20397;-66
2023/10/09 07:05:48;;;;;;;10.93;4.10;;;;;;;12.81;100.00;101070.00;4897947;29;20447;-66
2023/10/09 07:12:20;;;;;;;8.35;4.50;;;;;;;12.89;100.00;101090.59;4897624;29;20064;-68
2023/10/09 07:18:54;;;;;;;7.20;5.03;;;;;;;12.93;100.00;101116.63;4897833;29;20413;-67
2023/10/09 07:22:02;;;;;;;7.50;5.07;;;;;;;13.01;100.00;101122.28;4897897;29;20119;-67
2023/10/09 07:25:23;;;;;;;10.43;4.50;;;;;;;13.06;100.00;101116.81;4897351;29;20131;-67
2023/10/09 07:28:36;;;;;;;10.27;5.22;;;;;;;13.10;100.00;101113.09;4897214;29;20051;-67
2023/10/09 07:31:39;;;;;;;8.63;4.95;;;;;;;13.16;100.00;101112.75;4897590;29;20091;-67
2023/10/09 07:34:57;;;;;;;8.40;4.70;;;;;;;13.04;100.00;101109.00;4897506;29;20139;-67
2023/10/09 07:38:02;;;;;;;7.32;4.40;;;;;;;13.04;100.00;101101.13;4897405;29;20079;-67
2023/10/09 07:44:19;;;;;;;6.95;3.95;;;;;;;13.15;100.00;101105.81;4897424;29;20096;-67
2023/10/09 07:50:57;;;;;;;8.65;4.88;;;;;;;13.23;100.00;101098.34;4897306;29;20554;-67
2023/10/09 07:54:09;;;;;;;7.30;4.60;;;;;;;13.24;100.00;101105.38;4897215;29;20140;-67
2023/10/09 07:57:25;;;;;;;6.72;4.80;;;;;;;13.26;100.00;101100.00;4896964;29;20043;-67
2023/10/09 08:00:49;;;;;;;8.35;4.65;;;;;;;13.36;100.00;101114.34;4897148;29;20062;-67
2023/10/09 08:03:57;;;;;;;5.93;3.88;;;;;;;13.48;100.00;101115.44;4897259;29;20524;-67
2023/10/09 08:07:06;;;;;;;8.13;4.07;;;;;;;13.63;100.00;101126.91;4897088;29;20514;-67
2023/10/09 08:13:49;;;;;;;7.57;3.53;;;;;;;13.64;100.00;101129.44;4896690;29;20095;-67
2023/10/09 08:16:44;;;;;;;10.95;3.65;;;;;;;13.71;100.00;101138.66;4896843;29;20304;-67
2023/10/09 08:19:57;;;;;;;12.40;4.45;;;;;;;13.70;100.00;101138.75;4896733;29;20177;-67
2023/10/09 08:23:04;;;;;;;6.78;3.55;;;;;;;13.72;100.00;101143.00;4896852;29;20104;-67
2023/10/09 08:26:15;;;;;;;7.93;3.75;;;;;;;13.76;100.00;101140.22;4896712;29;20043;-67
2023/10/09 08:29:19;;;;;;;6.78;3.65;;;;;;;13.89;100.00;101141.22;4896642;29;20055;-67
2023/10/09 08:32:38;;;;;;;9.48;3.40;;;;;;;13.94;100.00;101152.31;4896574;29;20112;-67
2023/10/09 08:35:47;;;;;;;6.47;4.10;;;;;;;13.97;99.42;101144.25;4896428;29;20048;-67
2023/10/09 08:38:52;;;;;;;9.35;3.83;;;;;;;13.75;100.00;101146.38;4896463;29;20434;-67
2023/10/09 08:41:58;;;;;;;5.75;3.47;;;;;;;13.71;100.00;101140.44;4896722;29;20104;-67
2023/10/09 08:45:05;;;;;;;9.48;3.13;;;;;;;13.92;100.00;101154.19;4896447;29;20048;-67
2023/10/09 08:48:15;;;;;;;9.63;3.92;;;;;;;14.01;100.00;101153.66;4895614;29;20047;-67
2023/10/09 08:51:20;;;;;;;6.75;3.88;;;;;;;13.94;100.00;101147.03;4895791;29;20067;-67
2023/10/09 08:54:23;;;;;;;7.25;4.07;;;;;;;14.01;100.00;101148.41;4896561;29;20099;-67
2023/10/09 08:57:27;;;;;;;6.30;3.58;;;;;;;14.03;100.00;101143.91;4884573;29;20540;-68
2023/10/09 09:00:33;;;;;;;7.63;3.42;;;;;;;14.11;100.00;101144.31;4892019;29;20212;-69
2023/10/09 09:03:50;;;;;;;6.55;3.58;;;;;;;14.28;100.00;101140.72;4895626;29;20067;-68
2023/10/09 09:06:53;;;;;;;7.65;3.78;;;;;;;14.27;100.00;101144.28;4876847;29;20106;-68
2023/10/09 09:10:21;;;;;;;7.28;3.55;;;;;;;14.26;100.00;101157.50;4875338;29;20413;-68
2023/10/09 09:13:25;;;;;;;7.53;4.05;;;;;;;14.33;100.00;101143.09;4875389;29;20524;-68
2023/10/09 09:16:30;;;;;;;8.65;4.05;;;;;;;14.40;100.00;101149.69;4875535;29;20075;-68
2023/10/09 09:19:37;;;;;;;7.88;3.97;;;;;;;14.36;100.00;101161.34;4875574;29;20056;-68
2023/10/09 09:22:52;;;;;;;6.43;3.95;;;;;;;14.36;100.00;101159.53;4876016;29;20060;-69
2023/10/09 09:25:59;;;;;;;8.95;4.80;;;;;;;14.51;100.00;101162.22;4880137;29;20084;-68
2023/10/09 09:29:03;;;;;;;5.78;4.25;;;;;;;14.55;100.00;101175.13;4881205;29;20520;-68
2023/10/09 09:32:20;;;;;;;9.80;4.65;;;;;;;14.69;100.00;101181.38;4881103;29;20068;-68
2023/10/09 09:35:27;;;;;;;7.60;5.13;;;;;;;14.73;100.00;101174.97;4881086;29;20124;-68
2023/10/09 09:38:42;;;;;;;6.32;3.58;;;;;;;14.71;100.00;101143.50;4879489;29;20064;-68
2023/10/09 09:41:46;;;;;;;9.30;3.58;;;;;;;14.66;100.00;101161.34;4881073;29;20120;-68
2023/10/09 09:44:51;;;;;;;8.02;3.72;;;;;;;14.61;100.00;101160.75;4881239;29;20059;-68
2023/10/09 09:47:58;;;;;;;6.13;3.17;;;;;;;14.76;100.00;101156.38;4869154;29;20126;-67
2023/10/09 09:51:05;;;;;;;7.00;4.03;;;;;;;14.88;100.00;101145.09;4880853;29;20136;-68
2023/10/09 09:54:10;;;;;;;6.00;3.50;;;;;;;15.04;100.00;101150.28;4880536;29;20128;-67
2023/10/09 09:57:15;;;;;;;9.00;4.93;;;;;;;14.98;100.00;101134.88;4880743;29;20112;-67
2023/10/09 10:00:30;;;;;;;9.02;4.15;;;;;;;14.96;100.00;101124.41;4880687;29;20139;-68
2023/10/09 10:03:43;;;;;;;8.10;4.65;;;;;;;14.94;100.00;101118.41;4880773;29;20108;-68
2023/10/09 10:06:49;;;;;;;8.88;5.35;;;;;;;14.95;100.00;101132.41;4880738;29;20409;-68
2023/10/09 10:09:54;;;;;;;8.38;4.57;;;;;;;15.19;100.00;101151.13;4879626;29;20116;-67
2023/10/09 10:13:01;;;;;;;8.88;5.25;;;;;;;15.34;100.00;101144.91;4880417;29;20463;-69
2023/10/09 10:16:20;;;;;;;10.30;4.15;;;;;;;15.41;100.00;101106.72;4880310;29;20052;-67
2023/10/09 10:19:24;;;;;;;8.15;4.40;;;;;;;15.49;100.00;101067.53;4880560;29;20052;-67
2023/10/09 10:22:29;;;;;;;7.95;4.97;;;;;;;15.57;100.00;101070.53;4880492;29;20075;-67
2023/10/09 10:25:41;;;;;;;10.48;5.72;;;;;;;15.83;100.00;101065.38;4880084;29;20493;-68
2023/10/09 10:28:45;;;;;;;7.55;4.20;;;;;;;16.01;100.00;101061.50;4880335;29;20051;-68
2023/10/09 10:31:56;;;;;;;7.35;3.65;;;;;;;16.16;100.00;101066.72;4880484;29;20169;-76
2023/10/09 10:35:06;;;;;;;7.50;4.07;;;;;;;16.36;100.00;101063.56;4880502;29;20142;-73
2023/10/09 10:38:34;;;;;;;7.43;4.00;;;;;;;16.55;100.00;101071.06;4878965;29;20055;-70
2023/10/09 10:41:50;;;;;;;7.43;4.57;;;;;;;16.84;98.09;101063.81;4880245;29;20051;-70
2023/10/09 10:44:54;;;;;;;9.57;4.32;;;;;;;17.18;93.08;101053.50;4880332;29;20071;-66
2023/10/09 10:47:58;;;;;;;10.48;4.70;;;;;;;17.38;93.13;101055.53;4880131;29;20044;-69
2023/10/09 10:51:01;;;;;;;8.48;4.38;;;;;;;17.57;92.03;101057.69;4880274;29;20044;-69
2023/10/09 10:57:28;;;;;;;12.88;4.25;;;;;;;17.72;89.83;101050.44;4879593;29;20087;-70
2023/10/09 11:07:09;;;;;;;10.48;4.93;;;;;;;18.06;85.81;101042.66;4879255;29;20524;-70
2023/10/09 11:10:26;;;;;;;8.80;4.88;;;;;;;18.29;82.11;101035.63;4879346;29;20051;-70
2023/10/09 11:13:52;;;;;;;8.60;4.90;;;;;;;18.44;80.21;101025.66;4880202;29;20117;-71
2023/10/09 11:17:02;;;;;;;8.48;4.07;;;;;;;18.57;77.95;101015.81;4879974;29;20060;-74
2023/10/09 11:20:26;;;;;;;11.23;4.15;;;;;;;18.64;73.10;101010.88;4879719;29;20137;-71
2023/10/09 11:26:40;;;;;;;10.02;4.63;;;;;;;18.82;73.33;101004.13;4879138;29;20051;-67
2023/10/09 11:33:04;;;;;;;9.85;4.85;;;;;;;18.90;75.17;100991.13;4879260;29;20051;-67
2023/10/09 11:36:08;;;;;;;9.57;4.78;;;;;;;18.87;78.68;100990.53;4879463;29;20422;-68
2023/10/09 11:39:32;;;;;;;10.88;4.72;;;;;;;18.93;73.10;100990.06;4879443;29;20100;-68
2023/10/09 11:42:48;;;;;;;6.47;4.07;;;;;;;19.03;71.93;100983.03;4879334;29;20047;-70
2023/10/09 11:45:55;;;;;;;8.95;4.32;;;;;;;19.05;76.32;100981.97;4878917;29;20047;-70
2023/10/09 11:55:40;;;;;;;10.30;4.70;;;;;;;19.15;74.46;100978.56;4878701;29;20060;-69
2023/10/09 11:58:43;;;;;;;6.80;4.45;;;;;;;19.30;68.67;100979.94;4878921;29;20051;-68
2023/10/09 12:01:52;;;;;;;7.75;4.53;;;;;;;19.35;68.33;100974.28;4878828;29;20056;-69
2023/10/09 12:04:56;;;;;;;7.88;4.22;;;;;;;19.44;66.41;100973.53;4878562;29;20387;-69
2023/10/09 12:08:01;;;;;;;6.68;4.35;;;;;;;19.51;65.32;100980.00;4878390;29;20048;-70
2023/10/09 12:11:08;;;;;;;10.20;4.63;;;;;;;19.49;65.09;100981.94;4878216;29;20169;-70
2023/10/09 12:14:11;;;;;;;9.25;4.22;;;;;;;19.53;63.89;100983.38;4878472;29;20569;-71
2023/10/09 12:17:14;;;;;;;7.82;4.45;;;;;;;19.57;64.10;100982.16;4878241;29;20512;-69
2023/10/09 12:20:33;;;;;;;7.30;4.20;;;;;;;19.62;62.79;100982.63;4878341;29;20195;-69
2023/10/09 12:23:36;;;;;;;7.47;4.35;;;;;;;19.72;61.46;100986.22;4878278;29;20191;-70
2023/10/09 12:26:40;;;;;;;11.45;5.50;;;;;;;19.73;61.84;100979.09;4878339;29;20565;-69
2023/10/09 12:29:44;;;;;;;10.57;5.53;;;;;;;19.76;60.06;100973.53;4878492;29;20064;-69
2023/10/09 12:32:47;;;;;;;9.75;4.57;;;;;;;19.91;59.12;100976.69;4878079;29;20063;-68
2023/10/09 12:35:51;;;;;;;8.27;5.88;;;;;;;19.87;60.84;100977.94;4878281;29;20044;-68
2023/10/09 12:38:58;;;;;;;10.18;5.10;;;;;;;19.83;60.89;100977.34;4878192;29;20105;-69
2023/10/09 12:42:06;;;;;;;10.57;4.63;;;;;;;19.90;60.05;100969.72;4876729;29;20104;-68
2023/10/09 12:45:10;;;;;;;12.70;6.60;;;;;;;19.95;59.75;100978.13;4877778;29;20068;-72
2023/10/09 12:48:14;;;;;;;7.70;4.47;;;;;;;19.99;59.89;100968.94;4878208;29;20744;-76
2023/10/09 12:51:25;;;;;;;8.00;4.65;;;;;;;20.05;59.92;100968.41;4877942;29;20121;-71
2023/10/09 12:54:30;;;;;;;7.68;4.90;;;;;;;20.07;58.54;100974.44;4878236;29;20068;-71
2023/10/09 12:57:34;;;;;;;9.50;4.47;;;;;;;20.08;59.93;100965.50;4878091;29;20097;-72
2023/10/09 13:01:09;;;;;;;8.85;4.70;;;;;;;20.01;61.58;100964.34;4878785;29;20056;-73
2023/10/09 13:04:15;;;;;;;8.43;4.35;;;;;;;19.94;62.66;100965.81;4879010;29;20044;-74
2023/10/09 13:07:22;;;;;;;7.28;5.13;;;;;;;19.88;62.46;100969.84;4878585;29;20130;-74
2023/10/09 13:10:31;;;;;;;9.50;4.93;;;;;;;19.87;62.01;100954.88;4877018;29;20474;-73
2023/10/09 13:13:40;;;;;;;7.95;4.72;;;;;;;19.86;63.28;100957.69;4877606;29;20128;-72
2023/10/09 13:16:44;;;;;;;9.27;4.38;;;;;;;19.77;63.65;100966.41;4877810;29;20129;-72
2023/10/09 13:19:47;;;;;;;6.03;4.55;;;;;;;19.80;64.60;100963.50;4877872;29;20136;-73
2023/10/09 13:22:52;;;;;;;9.25;5.30;;;;;;;19.83;65.59;100964.09;4877972;29;20140;-72
2023/10/09 13:25:57;;;;;;;7.15;4.13;;;;;;;19.82;68.83;100966.88;4877611;29;20116;-73
2023/10/09 13:29:03;;;;;;;9.07;4.30;;;;;;;19.79;69.19;100967.13;4876791;29;20132;-73
2023/10/09 13:32:13;;;;;;;6.93;4.40;;;;;;;19.71;73.52;100968.59;4877936;29;20458;-72
2023/10/09 13:35:18;;;;;;;7.63;4.13;;;;;;;19.62;73.74;100971.16;4877418;29;20128;-72
2023/10/09 13:38:21;;;;;;;14.20;4.68;;;;;;;19.50;74.46;100967.72;4877766;29;20060;-75
2023/10/09 13:41:29;;;;;;;9.60;4.75;;;;;;;19.49;72.10;100955.41;4877747;29;20121;-74
2023/10/09 13:44:33;;;;;;;7.20;4.18;;;;;;;19.48;72.54;100954.56;4877518;29;20140;-74
2023/10/09 13:47:37;;;;;;;9.70;5.25;;;;;;;19.48;73.50;100953.72;4877513;29;20601;-73
2023/10/09 13:50:42;;;;;;;11.65;4.78;;;;;;;19.44;76.71;100969.06;4877320;29;20500;-74
2023/10/09 13:53:47;;;;;;;13.65;7.07;;;;;;;19.31;77.47;100973.69;4877429;29;20047;-72
2023/10/09 13:56:53;;;;;;;15.57;10.77;;;;;;;19.28;77.18;100974.78;4876992;29;20111;-73
2023/10/09 14:00:00;;;;;;;12.13;8.05;;;;;;;19.27;77.19;100973.09;4877274;29;20362;-73
2023/10/09 14:03:12;;;;;;;12.05;6.97;;;;;;;19.24;78.01;100973.34;4877077;29;20060;-74
2023/10/09 14:06:30;;;;;;;11.90;5.70;;;;;;;19.25;78.47;100968.91;4876576;29;20051;-73
2023/10/09 14:10:07;;;;;;;9.48;6.97;;;;;;;19.25;79.63;100964.44;4877129;29;20068;-73
2023/10/09 14:13:12;;;;;;;11.23;6.75;;;;;;;19.22;80.44;100964.69;4880257;29;20132;-73
2023/10/09 14:16:24;;;;;;;16.15;9.93;;;;;;;19.19;81.54;100969.38;4880522;29;20044;-74
2023/10/09 14:19:33;;;;;;;28.13;17.33;;;;;;;19.19;81.51;100986.13;4880592;29;20088;-73
2023/10/09 14:22:38;;;;;;;27.52;18.50;;;;;;;19.18;82.40;100980.97;4880460;29;20112;-72
2023/10/09 14:25:41;;;;;;;19.05;15.65;;;;;;;19.13;82.70;100986.63;4880455;29;20516;-71
2023/10/09 14:28:44;;;;;;;13.00;10.07;;;;;;;19.09;82.76;100990.50;4880409;29;20056;-70
2023/10/09 14:31:59;;;;;;;15.93;12.23;;;;;;;19.07;84.99;100992.41;4880381;29;20052;-71
2023/10/09 14:35:12;;;;;;;22.50;14.30;;;;;;;18.95;84.78;100978.38;4880196;29;20418;-70
2023/10/09 14:38:16;;;;;;;11.93;7.20;;;;;;;19.00;84.34;100980.63;4880239;29;20483;-71
2023/10/09 14:41:23;;;;;;;16.23;7.55;;;;;;;18.99;85.24;100984.25;4879783;29;20044;-73
2023/10/09 14:44:27;;;;;;;11.77;7.90;;;;;;;18.98;85.02;100990.50;4880094;29;20101;-73
2023/10/09 14:47:30;;;;;;;13.88;8.95;;;;;;;18.99;84.92;100982.44;4879858;29;20044;-73
2023/10/09 14:50:38;;;;;;;12.05;8.55;;;;;;;18.98;85.56;100988.69;4878974;29;20199;-72
2023/10/09 14:53:41;;;;;;;18.60;7.18;;;;;;;18.96;86.04;100989.81;4880040;29;20051;-73
2023/10/09 14:56:46;;;;;;;17.63;8.93;;;;;;;18.85;86.08;100985.34;4880030;29;20051;-72
2023/10/09 14:59:51;;;;;;;17.08;6.72;;;;;;;18.90;88.05;100985.00;4879977;29;20047;-73
2023/10/09 15:02:54;;;;;;;15.15;5.40;;;;;;;18.91;88.72;100986.69;4879689;29;20125;-74
2023/10/09 15:05:59;;;;;;;11.90;5.50;;;;;;;18.88;89.35;100982.44;4879744;29;20060;-76
2023/10/09 15:09:09;;;;;;;13.60;5.72;;;;;;;18.88;92.94;100992.22;4879571;29;20051;-69
2023/10/09 15:12:12;;;;;;;15.07;6.70;;;;;;;19.15;91.57;100991.81;4879456;29;20099;-71
2023/10/09 15:15:16;;;;;;;15.70;7.60;;;;;;;19.25;90.83;100993.59;4879614;29;20068;-72
2023/10/09 15:18:21;;;;;;;13.45;7.25;;;;;;;19.29;90.03;100992.38;4879603;29;20088;-68
2023/10/09 15:21:27;;;;;;;17.52;6.78;;;;;;;19.28;92.53;100993.34;4879620;29;20044;-69
2023/10/09 15:24:30;;;;;;;10.63;5.40;;;;;;;19.18;92.45;100989.75;4879013;29;20052;-68
2023/10/09 15:27:34;;;;;;;11.88;5.15;;;;;;;19.32;90.93;100991.28;4879355;29;20047;-69
2023/10/09 15:30:42;;;;;;;10.30;4.35;;;;;;;19.41;89.70;100989.69;4879290;29;20546;-68
2023/10/09 15:33:47;;;;;;;9.52;4.43;;;;;;;19.33;89.48;101008.03;4879650;29;20116;-69
2023/10/09 15:36:50;;;;;;;10.07;4.22;;;;;;;19.33;89.57;100997.41;4878959;29;20095;-69
2023/10/09 15:39:54;;;;;;;11.25;5.18;;;;;;;19.29;88.97;100992.38;4879302;29;20104;-69
2023/10/09 15:42:57;;;;;;;11.57;4.72;;;;;;;19.17;88.95;100992.53;4879257;29;20104;-69
2023/10/09 15:46:01;;;;;;;14.68;5.22;;;;;;;19.12;89.44;100989.41;4879131;29;20044;-69
2023/10/09 15:49:06;;;;;;;11.65;4.68;;;;;;;19.12;88.88;100987.59;4879141;29;20109;-69
2023/10/09 15:52:13;;;;;;;13.00;5.75;;;;;;;18.99;89.22;100990.41;4879092;29;20481;-69
2023/10/09 15:55:20;;;;;;;8.57;5.13;;;;;;;18.91;89.21;100984.03;4879621;29;20584;-69
2023/10/09 15:58:25;;;;;;;8.75;5.38;;;;;;;18.79;90.35;100984.06;4878938;29;20044;-68
2023/10/09 16:01:28;;;;;;;12.73;4.68;;;;;;;18.70;90.95;100992.69;4877168;29;20124;-68
2023/10/09 16:04:34;;;;;;;9.55;4.25;;;;;;;18.66;91.39;100999.19;4877840;29;20161;-68
2023/10/09 16:07:39;;;;;;;19.08;5.97;;;;;;;18.60;91.95;100999.66;4878127;29;20414;-69
2023/10/09 16:10:48;;;;;;;8.85;4.70;;;;;;;18.40;92.07;101003.88;4877595;29;20051;-69